Time;durP1;ratioP1;P1;durP2;ratioP2;P2;SDS_P1;SDS_P2;PMS_P1;PMS_P2;Temp;Humidity;BMP_temperature;BMP_pressure;BME280_temperature;BME280_humidity;BME280_pressure;Samples;Min_cycle;Max_cycle;Signal;HPM_P1;HPM_P2
2020/06/01 00:06:15;;;;;;;2;1;;;;;;;13.34;65.12012;962.4919;;;;
2020/06/01 00:08:32;;;;;;;2;1.2;;;;;;;13.35;65.39941;962.4739;;;;
2020/06/01 00:16:04;;;;;;;2.3;1.1;;;;;;;13.3;65.47168;962.347;;;;
2020/06/01 00:18:29;;;;;;;3;1.2;;;;;;;13.34;65.86133;962.3764;;;;
2020/06/01 00:20:44;;;;;;;2.3;1.2;;;;;;;13.45;65.24023;962.4431;;;;
2020/06/01 00:23:08;;;;;;;1.8;1.1;;;;;;;13.4;65.34766;962.3712;;;;
2020/06/01 00:25:27;;;;;;;2.5;1.1;;;;;;;13.37;65.8418;962.3552;;;;
2020/06/01 00:27:53;;;;;;;1.6;1.1;;;;;;;13.26;66.26563;962.3351;;;;
2020/06/01 00:30:26;;;;;;;2.1;1.2;;;;;;;13.22;66.23535;962.2952;;;;
2020/06/01 00:32:50;;;;;;;2.2;1.2;;;;;;;13.31;66.0752;962.2762;;;;
2020/06/01 00:40:14;;;;;;;2.7;1.2;;;;;;;13.23;66.74805;962.2338;;;;
2020/06/01 00:43:09;;;;;;;1.9;1.1;;;;;;;13.2;66.84668;962.2473;;;;
2020/06/01 00:54:42;;;;;;;2;1.1;;;;;;;13.27;66.67285;962.1895;;;;
2020/06/01 01:02:36;;;;;;;1.8;1.2;;;;;;;13.21;66.91797;962.1328;;;;
2020/06/01 01:05:02;;;;;;;2.4;1.1;;;;;;;13.25;66.98047;962.1442;;;;
2020/06/01 01:07:28;;;;;;;2.1;1;;;;;;;13.25;67.23535;962.0951;;;;
2020/06/01 01:10:10;;;;;;;2.3;1.1;;;;;;;13.24;66.77148;962.0464;;;;
2020/06/01 01:12:19;;;;;;;2.2;1.2;;;;;;;13.28;66.33789;962.0867;;;;
2020/06/01 01:42:13;;;;;;;3.2;1.1;;;;;;;12.86;68.73633;961.984;;;;
2020/06/01 01:44:26;;;;;;;2.2;1.1;;;;;;;12.72;69.74512;962.0125;;;;
2020/06/01 01:46:47;;;;;;;2;1.2;;;;;;;12.79;68.86523;961.9978;;;;
2020/06/01 01:54:13;;;;;;;1.9;1.3;;;;;;;12.7;69.8457;961.9589;;;;
2020/06/01 01:56:39;;;;;;;2.4;1.2;;;;;;;12.6;69.81836;962.0017;;;;
2020/06/01 01:59:07;;;;;;;1.7;1.3;;;;;;;12.62;69.84473;962.0262;;;;
2020/06/01 02:01:27;;;;;;;2.1;1.3;;;;;;;12.56;70.36621;962.0491;;;;
2020/06/01 02:05:16;;;;;;;2.8;1.2;;;;;;;12.54;70.35156;962.0089;;;;
2020/06/01 02:06:17;;;;;;;2.1;1.4;;;;;;;12.62;69.95996;961.965;;;;
2020/06/01 02:08:40;;;;;;;2.1;1.2;;;;;;;12.68;69.7627;962.0259;;;;
2020/06/01 02:13:32;;;;;;;1.3;1.2;;;;;;;12.6;70.60352;961.9241;;;;
2020/06/01 02:15:56;;;;;;;1.7;1.1;;;;;;;12.62;69.85645;961.9855;;;;
2020/06/01 02:18:21;;;;;;;2.1;1.4;;;;;;;12.42;70.79395;961.9091;;;;
2020/06/01 02:20:47;;;;;;;2;1.3;;;;;;;12.35;71.24609;961.8881;;;;
2020/06/01 02:23:13;;;;;;;2.3;1.5;;;;;;;12.28;71.61523;961.9247;;;;
2020/06/01 02:25:41;;;;;;;3;1.3;;;;;;;12.19;72.22461;961.8904;;;;
2020/06/01 02:28:06;;;;;;;2.5;1.2;;;;;;;12.32;71.85449;961.8577;;;;
2020/06/01 02:30:43;;;;;;;2.8;1.3;;;;;;;12.45;70.74219;961.8875;;;;
2020/06/01 02:33:07;;;;;;;2.4;1.2;;;;;;;12.35;71.11914;961.8832;;;;
2020/06/01 02:35:32;;;;;;;2.3;1.4;;;;;;;12.31;71.47168;961.9031;;;;
2020/06/01 02:38:02;;;;;;;2.2;1.3;;;;;;;12.29;71.88281;961.9158;;;;
2020/06/01 02:40:31;;;;;;;2.3;1.3;;;;;;;12.2;72.53809;961.9056;;;;
2020/06/01 02:43:00;;;;;;;2.5;1.2;;;;;;;12.23;72.16113;961.9278;;;;
2020/06/01 02:45:29;;;;;;;2.1;1.4;;;;;;;12.24;72.29102;961.974;;;;
2020/06/01 02:47:56;;;;;;;2.7;1.3;;;;;;;12.27;71.8457;962.0087;;;;
2020/06/01 02:50:24;;;;;;;3.3;1.4;;;;;;;12.13;72.37598;961.9295;;;;
2020/06/01 02:52:49;;;;;;;2.4;1.2;;;;;;;12.19;72.58301;961.9387;;;;
2020/06/01 02:55:24;;;;;;;1.5;1.2;;;;;;;12.24;72.44141;961.947;;;;
2020/06/01 02:57:52;;;;;;;2.7;1.5;;;;;;;12.18;72.8584;961.9403;;;;
2020/06/01 03:00:31;;;;;;;3.2;1.4;;;;;;;12.24;72.18555;961.9412;;;;
2020/06/01 03:02:56;;;;;;;2.7;1.2;;;;;;;12.18;72.31543;961.9894;;;;
2020/06/01 03:05:26;;;;;;;2.7;1.3;;;;;;;12.21;72.44824;961.9433;;;;
2020/06/01 03:07:59;;;;;;;2.8;1.5;;;;;;;12.1;72.54492;961.9372;;;;
2020/06/01 03:10:33;;;;;;;2;1.3;;;;;;;12.2;72.39941;961.8856;;;;
2020/06/01 03:12:58;;;;;;;3.1;1.5;;;;;;;12.24;72.39551;961.9201;;;;
2020/06/01 03:15:27;;;;;;;1.6;1.4;;;;;;;12.22;72.10254;961.9278;;;;
2020/06/01 03:18:02;;;;;;;2.5;1.5;;;;;;;12.12;72.57227;961.8878;;;;
2020/06/01 03:20:20;;;;;;;3.1;1.6;;;;;;;12.13;72.56055;961.9132;;;;
2020/06/01 03:23:27;;;;;;;2.7;1.4;;;;;;;11.95;73.61621;961.8391;;;;
2020/06/01 03:27:39;;;;;;;2;1.3;;;;;;;11.86;73.83203;961.9004;;;;
2020/06/01 03:30:15;;;;;;;3.4;1.4;;;;;;;11.93;73.99219;961.8835;;;;
2020/06/01 03:32:43;;;;;;;2.6;1.6;;;;;;;11.72;74.37402;961.8714;;;;
2020/06/01 03:37:30;;;;;;;2.5;1.3;;;;;;;11.9;74.3125;961.9034;;;;
2020/06/01 03:39:55;;;;;;;2.4;1.4;;;;;;;11.89;74.32129;961.8511;;;;
2020/06/01 03:42:20;;;;;;;2.6;1.2;;;;;;;11.93;74.23633;961.8795;;;;
2020/06/01 03:44:51;;;;;;;2.3;1.5;;;;;;;11.6;75.50684;961.9279;;;;
2020/06/01 03:47:28;;;;;;;3;1.4;;;;;;;11.6;75.56445;961.932;;;;
2020/06/01 03:50:02;;;;;;;3.2;1.2;;;;;;;11.57;75.99805;961.9796;;;;
2020/06/01 03:52:27;;;;;;;3.7;1.8;;;;;;;11.62;75.82129;961.9553;;;;
2020/06/01 03:54:52;;;;;;;2.6;1.5;;;;;;;11.61;75.80957;961.9691;;;;
2020/06/01 03:57:20;;;;;;;4;1.6;;;;;;;11.58;75.68848;962.0441;;;;
2020/06/01 03:59:53;;;;;;;2.4;1.6;;;;;;;11.68;75.50879;962.0389;;;;
2020/06/01 04:02:28;;;;;;;2.8;1.4;;;;;;;11.77;74.87793;962.0577;;;;
2020/06/01 04:05:01;;;;;;;3;1.6;;;;;;;11.73;74.83594;962.079;;;;
2020/06/01 04:07:30;;;;;;;5;1.7;;;;;;;11.63;75.41895;962.0818;;;;
2020/06/01 04:09:56;;;;;;;4;1.7;;;;;;;11.66;75.22754;962.0995;;;;
2020/06/01 04:12:26;;;;;;;2.7;1.7;;;;;;;11.64;75.52637;962.1117;;;;
2020/06/01 04:15:01;;;;;;;4.7;1.8;;;;;;;11.68;75.29004;962.1369;;;;
2020/06/01 04:17:26;;;;;;;2.3;1.7;;;;;;;11.72;75.63184;962.1309;;;;
2020/06/01 04:19:51;;;;;;;3.4;2.1;;;;;;;11.58;76.11523;962.1448;;;;
2020/06/01 04:22:16;;;;;;;3.1;1.8;;;;;;;11.5;76.57324;962.073;;;;
2020/06/01 04:24:43;;;;;;;3;1.9;;;;;;;11.58;76.01074;962.113;;;;
2020/06/01 04:27:19;;;;;;;3.3;2.1;;;;;;;11.6;76.4873;962.1035;;;;
2020/06/01 04:29:46;;;;;;;3.1;2;;;;;;;11.55;76.30664;962.1523;;;;
2020/06/01 04:32:11;;;;;;;3;1.9;;;;;;;11.59;76.49902;962.145;;;;
2020/06/01 04:34:37;;;;;;;2.5;1.8;;;;;;;11.53;76.68359;962.1332;;;;
2020/06/01 04:37:02;;;;;;;4;2.1;;;;;;;11.51;76.45801;962.1792;;;;
2020/06/01 04:39:28;;;;;;;2.4;1.9;;;;;;;11.64;76.45996;962.1591;;;;
2020/06/01 04:41:53;;;;;;;2.4;1.9;;;;;;;11.69;76.27246;962.1655;;;;
2020/06/01 04:44:23;;;;;;;3.7;2;;;;;;;11.72;76.16309;962.158;;;;
2020/06/01 04:46:49;;;;;;;3.9;1.7;;;;;;;11.68;76.22461;962.1401;;;;
2020/06/01 04:49:14;;;;;;;3.6;1.8;;;;;;;11.73;76.00293;962.1191;;;;
2020/06/01 04:51:39;;;;;;;3.5;2;;;;;;;11.87;76.01465;962.1324;;;;
2020/06/01 04:54:04;;;;;;;3.9;2;;;;;;;11.81;76.34082;962.1057;;;;
2020/06/01 04:56:30;;;;;;;3.1;1.8;;;;;;;11.98;75.71094;962.1361;;;;
2020/06/01 04:58:56;;;;;;;3.2;1.7;;;;;;;12.01;75.40527;962.1383;;;;
2020/06/01 05:01:21;;;;;;;3.1;1.8;;;;;;;12.04;75.3291;962.1028;;;;
2020/06/01 05:03:46;;;;;;;3.3;1.7;;;;;;;12.07;75.12695;962.0968;;;;
2020/06/01 05:06:11;;;;;;;2.4;1.9;;;;;;;12.03;75.44336;962.1453;;;;
2020/06/01 05:08:41;;;;;;;3.7;2.2;;;;;;;12.09;75.11914;962.103;;;;
2020/06/01 05:11:11;;;;;;;4.2;1.8;;;;;;;12.15;75.07227;962.1301;;;;
2020/06/01 05:13:36;;;;;;;2.2;1.6;;;;;;;12.24;74.84473;962.1342;;;;
2020/06/01 05:16:05;;;;;;;4.3;1.6;;;;;;;12.37;75.33984;962.1893;;;;
2020/06/01 05:18:31;;;;;;;2.4;1.8;;;;;;;12.48;74.35449;962.2304;;;;
2020/06/01 05:20:56;;;;;;;2.4;1.7;;;;;;;12.6;73.63477;962.2559;;;;
2020/06/01 05:23:21;;;;;;;2.3;1.8;;;;;;;12.59;74.87012;962.276;;;;
2020/06/01 05:25:51;;;;;;;3.8;1.9;;;;;;;12.69;73.82324;962.2885;;;;
2020/06/01 05:28:16;;;;;;;3.8;2.2;;;;;;;12.66;74.12988;962.2724;;;;
2020/06/01 05:30:46;;;;;;;2.6;2;;;;;;;12.75;74.0752;962.2648;;;;
2020/06/01 05:33:13;;;;;;;3;1.8;;;;;;;12.78;73.60742;962.2701;;;;
2020/06/01 05:35:42;;;;;;;3.2;1.8;;;;;;;12.85;73.5957;962.2645;;;;
2020/06/01 05:38:18;;;;;;;3;2;;;;;;;12.89;74.44727;962.2559;;;;
2020/06/01 05:40:53;;;;;;;3.5;1.9;;;;;;;12.98;73.69824;962.3014;;;;
2020/06/01 05:43:23;;;;;;;2.6;1.9;;;;;;;13.01;73.51953;962.3357;;;;
2020/06/01 05:45:48;;;;;;;2.2;2;;;;;;;13.13;73.22656;962.2981;;;;
2020/06/01 05:48:13;;;;;;;4.2;2;;;;;;;13.09;73.16113;962.3096;;;;
2020/06/01 05:50:38;;;;;;;2.3;1.8;;;;;;;13.23;73.41699;962.2838;;;;
2020/06/01 05:53:05;;;;;;;3.9;1.8;;;;;;;13.39;72.16992;962.3065;;;;
2020/06/01 05:55:31;;;;;;;3.2;1.8;;;;;;;13.46;72.55078;962.2532;;;;
2020/06/01 05:57:57;;;;;;;2.7;1.9;;;;;;;13.62;71.54785;962.3151;;;;
2020/06/01 06:00:27;;;;;;;2.6;1.6;;;;;;;13.81;70.65039;962.3425;;;;
2020/06/01 06:02:55;;;;;;;2.6;1.7;;;;;;;13.78;70.86719;962.2496;;;;
2020/06/01 06:05:27;;;;;;;3.2;1.9;;;;;;;13.95;70.6377;962.2966;;;;
2020/06/01 06:07:54;;;;;;;3.8;2.1;;;;;;;13.92;70.29688;962.2536;;;;
2020/06/01 06:10:19;;;;;;;2;1.7;;;;;;;14.03;70.37207;962.2762;;;;
2020/06/01 06:12:53;;;;;;;2.7;1.6;;;;;;;14.12;70.28223;962.194;;;;
2020/06/01 06:15:22;;;;;;;2.3;1.7;;;;;;;14.19;69.80469;962.2317;;;;
2020/06/01 06:18:05;;;;;;;3.2;1.7;;;;;;;14.31;69.06055;962.2114;;;;
2020/06/01 06:20:31;;;;;;;3.3;1.8;;;;;;;14.36;69.00977;962.2043;;;;
2020/06/01 06:23:02;;;;;;;2.7;1.9;;;;;;;14.43;68.47363;962.2224;;;;
2020/06/01 06:25:27;;;;;;;3.5;1.9;;;;;;;14.58;67.76758;962.1877;;;;
2020/06/01 06:27:52;;;;;;;3.3;1.9;;;;;;;14.75;67.80371;962.1995;;;;
2020/06/01 06:30:33;;;;;;;3.5;1.5;;;;;;;14.89;67.33789;962.2596;;;;
2020/06/01 06:33:01;;;;;;;4.1;1.8;;;;;;;14.89;67.18652;962.1816;;;;
2020/06/01 06:35:27;;;;;;;2.6;1.8;;;;;;;14.9;66.37402;962.2205;;;;
2020/06/01 06:40:32;;;;;;;4.3;1.5;;;;;;;15.18;66.02148;962.2712;;;;
2020/06/01 06:42:50;;;;;;;2.5;1.4;;;;;;;15.14;65.93457;962.3672;;;;
2020/06/01 06:45:17;;;;;;;3.5;1.4;;;;;;;15.26;65.30078;962.3326;;;;
2020/06/01 06:47:42;;;;;;;3.4;1.2;;;;;;;15.25;65.12598;962.2764;;;;
2020/06/01 06:50:07;;;;;;;3.3;1.4;;;;;;;15.31;65.32031;962.3293;;;;
2020/06/01 06:52:34;;;;;;;2.1;1.3;;;;;;;15.42;65.44043;962.3013;;;;
2020/06/01 06:54:59;;;;;;;5.6;1.2;;;;;;;15.57;63.76367;962.3265;;;;
2020/06/01 06:57:25;;;;;;;4;1.5;;;;;;;15.67;63.80176;962.3555;;;;
2020/06/01 07:00:21;;;;;;;3.1;1.2;;;;;;;15.77;62.83887;962.3713;;;;
2020/06/01 07:02:49;;;;;;;2.1;1.2;;;;;;;15.81;62.9707;962.3672;;;;
2020/06/01 07:05:21;;;;;;;4.3;1.5;;;;;;;15.77;63.61914;962.335;;;;
2020/06/01 07:07:47;;;;;;;3.6;1.2;;;;;;;15.94;62.93164;962.3518;;;;
2020/06/01 07:10:12;;;;;;;4;1.4;;;;;;;15.91;63.0791;962.3558;;;;
2020/06/01 07:12:37;;;;;;;2.9;1.2;;;;;;;15.99;62.76465;962.3256;;;;
2020/06/01 07:15:03;;;;;;;3.2;1.4;;;;;;;16.18;61.5918;962.3336;;;;
2020/06/01 07:17:28;;;;;;;4;1.3;;;;;;;16.12;62.38672;962.3398;;;;
2020/06/01 07:19:54;;;;;;;2.4;1.2;;;;;;;16.13;62.19043;962.382;;;;
2020/06/01 07:22:21;;;;;;;2.8;1.3;;;;;;;16.14;62.05273;962.3531;;;;
2020/06/01 07:24:47;;;;;;;3.7;1.3;;;;;;;16.2;62.36328;962.3795;;;;
2020/06/01 07:27:13;;;;;;;2.9;1.2;;;;;;;16.42;62.85156;962.3446;;;;
2020/06/01 07:29:38;;;;;;;2.7;1.2;;;;;;;16.59;62.24414;962.3462;;;;
2020/06/01 07:32:05;;;;;;;2.8;1.2;;;;;;;16.69;62.04785;962.3414;;;;
2020/06/01 07:35:51;;;;;;;2.7;1.3;;;;;;;16.66;61.41406;962.3586;;;;
2020/06/01 07:39:20;;;;;;;3.7;1.3;;;;;;;16.64;61.27148;962.3035;;;;
2020/06/01 07:41:46;;;;;;;1.9;1.2;;;;;;;16.72;61.31738;962.3702;;;;
2020/06/01 07:44:11;;;;;;;3.8;1.2;;;;;;;16.81;60.79297;962.354;;;;
2020/06/01 07:46:36;;;;;;;3.8;1.6;;;;;;;16.86;61.19629;962.376;;;;
2020/06/01 07:49:02;;;;;;;4.1;1.6;;;;;;;16.9;59.70801;962.3909;;;;
2020/06/01 07:51:26;;;;;;;2.7;1.1;;;;;;;16.93;60.38867;962.3868;;;;
2020/06/01 07:53:53;;;;;;;3.1;1.4;;;;;;;16.99;59.89551;962.3423;;;;
2020/06/01 07:56:18;;;;;;;3.8;1.2;;;;;;;17.1;59.01074;962.3287;;;;
2020/06/01 07:58:43;;;;;;;3.3;1;;;;;;;17.21;59.49219;962.3714;;;;
2020/06/01 08:01:11;;;;;;;2.9;1.5;;;;;;;17.31;59.13184;962.301;;;;
2020/06/01 08:03:36;;;;;;;4.1;1.4;;;;;;;17.44;59.39551;962.3195;;;;
2020/06/01 08:06:01;;;;;;;2.4;1.2;;;;;;;17.48;58.74609;962.3211;;;;
2020/06/01 08:08:27;;;;;;;3.3;1.1;;;;;;;17.53;58.89355;962.3375;;;;
2020/06/01 08:11:01;;;;;;;4.2;1.3;;;;;;;17.57;57.83398;962.3801;;;;
2020/06/01 08:13:27;;;;;;;3;1.1;;;;;;;17.59;56.375;962.4016;;;;
2020/06/01 08:15:53;;;;;;;4.3;1.4;;;;;;;17.55;57.22266;962.3307;;;;
2020/06/01 08:18:21;;;;;;;3.7;1.2;;;;;;;17.53;57.7002;962.3326;;;;
2020/06/01 08:20:45;;;;;;;4.8;1.5;;;;;;;17.63;58.47266;962.3667;;;;
2020/06/01 08:23:10;;;;;;;4.9;1.4;;;;;;;17.7;57.61719;962.4009;;;;
2020/06/01 08:25:35;;;;;;;4;1.4;;;;;;;17.73;57.03516;962.3596;;;;
2020/06/01 08:28:01;;;;;;;2.9;1.1;;;;;;;17.8;56.75293;962.3903;;;;
2020/06/01 08:30:28;;;;;;;3.2;1.1;;;;;;;17.73;56.62598;962.3052;;;;
2020/06/01 08:32:53;;;;;;;3.7;1.2;;;;;;;17.74;56.7334;962.2665;;;;
2020/06/01 08:35:22;;;;;;;4.3;1.4;;;;;;;17.78;56.41016;962.2789;;;;
2020/06/01 08:37:47;;;;;;;2.9;1.1;;;;;;;17.8;56.4375;962.2625;;;;
2020/06/01 08:40:25;;;;;;;3.3;1.1;;;;;;;17.91;56.4502;962.3022;;;;
2020/06/01 08:42:50;;;;;;;4.6;1.2;;;;;;;17.97;55.86133;962.2351;;;;
2020/06/01 08:45:32;;;;;;;3.9;1.3;;;;;;;17.97;56.32813;962.1733;;;;
2020/06/01 08:47:57;;;;;;;2.6;1.1;;;;;;;18.13;56.2793;962.1626;;;;
2020/06/01 08:50:22;;;;;;;3.4;1.2;;;;;;;18.19;55.80664;962.1404;;;;
2020/06/01 08:52:47;;;;;;;3.7;1.4;;;;;;;18.27;55.16113;962.0502;;;;
2020/06/01 08:55:20;;;;;;;5.2;1.4;;;;;;;18.37;55.0918;962.0875;;;;
2020/06/01 08:57:46;;;;;;;3.1;1.3;;;;;;;18.38;54.49609;962.1163;;;;
2020/06/01 09:00:24;;;;;;;1.8;1.1;;;;;;;18.25;55.37012;962.1889;;;;
2020/06/01 09:02:49;;;;;;;3.4;1.2;;;;;;;18.3;55.41113;962.1704;;;;
2020/06/01 09:05:15;;;;;;;3.1;1.3;;;;;;;18.4;55.29492;962.1467;;;;
2020/06/01 09:07:40;;;;;;;3.4;1.1;;;;;;;18.51;54.75684;962.1415;;;;
2020/06/01 09:10:05;;;;;;;3.8;1.1;;;;;;;18.67;53.73535;962.1544;;;;
2020/06/01 09:12:33;;;;;;;3.6;1.3;;;;;;;18.64;53.49609;962.1216;;;;
2020/06/01 09:14:58;;;;;;;4.8;1.8;;;;;;;18.66;54.09766;962.0981;;;;
2020/06/01 09:17:38;;;;;;;4.3;1.2;;;;;;;18.82;53.57617;962.0684;;;;
2020/06/01 09:19:50;;;;;;;4.7;1.3;;;;;;;18.91;53.30664;962.0303;;;;
2020/06/01 09:22:17;;;;;;;4;1.5;;;;;;;18.98;52.55176;962.0567;;;;
2020/06/01 09:24:42;;;;;;;4;1.1;;;;;;;18.94;53.79102;962.0094;;;;
2020/06/01 09:27:07;;;;;;;4.8;1.3;;;;;;;18.94;53.75488;961.9352;;;;
2020/06/01 09:29:32;;;;;;;3;1.2;;;;;;;19.13;52.47656;961.9694;;;;
2020/06/01 09:31:57;;;;;;;3.1;1.3;;;;;;;19.2;50.3125;962.0024;;;;
2020/06/01 09:34:24;;;;;;;3.4;1.3;;;;;;;19.16;50.74219;961.9889;;;;
2020/06/01 09:36:49;;;;;;;3.7;1.3;;;;;;;19.21;51.05371;961.9844;;;;
2020/06/01 09:39:14;;;;;;;3.9;1.2;;;;;;;19.27;50.14355;961.9424;;;;
2020/06/01 09:41:39;;;;;;;4.4;1.2;;;;;;;19.2;50.08789;961.8878;;;;
2020/06/01 09:44:04;;;;;;;2.6;1.2;;;;;;;19.36;49.73145;961.9108;;;;
2020/06/01 09:46:29;;;;;;;3.4;1.4;;;;;;;19.34;49.31836;961.9232;;;;
2020/06/01 09:48:56;;;;;;;5.9;1.3;;;;;;;19.4;48.72656;961.9144;;;;
2020/06/01 09:51:21;;;;;;;3.8;1.3;;;;;;;19.51;48.70313;961.9313;;;;
2020/06/01 09:53:47;;;;;;;4.7;1.3;;;;;;;19.7;48.88867;961.9061;;;;
2020/06/01 09:56:12;;;;;;;3.7;1.2;;;;;;;19.9;48.06445;961.8809;;;;
2020/06/01 09:58:37;;;;;;;3.4;1;;;;;;;19.89;46.98145;961.8645;;;;
2020/06/01 10:01:03;;;;;;;3.8;1.1;;;;;;;20.01;45.80664;961.915;;;;
2020/06/01 10:03:31;;;;;;;5.8;3;;;;;;;20.1;46.21582;961.8375;;;;
2020/06/01 10:05:58;;;;;;;6;3.2;;;;;;;20;46.38086;961.8077;;;;
2020/06/01 10:08:23;;;;;;;5.1;2.6;;;;;;;20.13;46.47754;961.905;;;;
2020/06/01 10:10:51;;;;;;;4.6;1.9;;;;;;;20.22;45.01563;961.834;;;;
2020/06/01 10:13:17;;;;;;;2.9;1.7;;;;;;;20.05;44.24707;961.8731;;;;
2020/06/01 10:15:44;;;;;;;4.3;1.2;;;;;;;19.99;44.34668;961.7928;;;;
2020/06/01 10:18:13;;;;;;;4.5;3.2;;;;;;;20.01;44.38477;961.8076;;;;
2020/06/01 10:20:35;;;;;;;8.9;3.5;;;;;;;20.17;45.10547;961.8566;;;;
2020/06/01 10:23:00;;;;;;;5.1;2;;;;;;;20.06;45.71777;961.8663;;;;
2020/06/01 10:25:26;;;;;;;3.5;1.2;;;;;;;19.98;43.58008;961.8112;;;;
2020/06/01 10:27:51;;;;;;;3.8;1.3;;;;;;;20.1;43.98047;961.8317;;;;
2020/06/01 10:30:17;;;;;;;3.9;1.5;;;;;;;20.17;43.5293;961.7811;;;;
2020/06/01 10:32:43;;;;;;;4.4;1.4;;;;;;;20.19;43.8252;961.8304;;;;
2020/06/01 10:35:08;;;;;;;4.2;1.4;;;;;;;20.34;44.09863;961.7595;;;;
2020/06/01 10:37:35;;;;;;;5.5;1.5;;;;;;;20.46;44.78125;961.7411;;;;
2020/06/01 10:40:01;;;;;;;5.6;1.5;;;;;;;20.37;43.36035;961.8127;;;;
2020/06/01 10:42:26;;;;;;;4.6;1.1;;;;;;;20.2;42.15527;961.7535;;;;
2020/06/01 10:44:51;;;;;;;3.9;1.4;;;;;;;20.33;42.56836;961.7952;;;;
2020/06/01 10:47:16;;;;;;;4.4;1.1;;;;;;;20.38;42.92578;961.8088;;;;
2020/06/01 10:49:41;;;;;;;4.1;1.2;;;;;;;20.32;42.91992;961.759;;;;
2020/06/01 10:52:06;;;;;;;5;1.2;;;;;;;20.13;43.14844;961.7808;;;;
2020/06/01 10:54:31;;;;;;;3.4;1.1;;;;;;;20.26;41.54883;961.7294;;;;
2020/06/01 10:56:58;;;;;;;4.5;1.1;;;;;;;20.32;41.75488;961.7458;;;;
2020/06/01 10:59:23;;;;;;;3.1;1;;;;;;;20.41;40.83301;961.707;;;;
2020/06/01 11:01:48;;;;;;;6.2;1.1;;;;;;;20.54;41.26953;961.7625;;;;
2020/06/01 11:04:22;;;;;;;5.2;1.2;;;;;;;20.56;41.31836;961.7291;;;;
2020/06/01 11:06:47;;;;;;;2.4;0.9;;;;;;;20.65;41.58594;961.7234;;;;
2020/06/01 11:09:13;;;;;;;3.4;1.2;;;;;;;20.69;42.67285;961.6738;;;;
2020/06/01 11:11:57;;;;;;;5.6;1.3;;;;;;;21.05;40.92773;961.6292;;;;
2020/06/01 11:14:22;;;;;;;2.4;1.1;;;;;;;20.8;41.45801;961.6238;;;;
2020/06/01 11:16:49;;;;;;;4.4;1.2;;;;;;;20.77;41.24316;961.5856;;;;
2020/06/01 11:19:12;;;;;;;1.9;0.8;;;;;;;20.9;40.54883;961.6188;;;;
2020/06/01 11:21:37;;;;;;;2.3;0.8;;;;;;;20.86;41.11035;961.5773;;;;
2020/06/01 11:24:05;;;;;;;7.7;1.2;;;;;;;21;42.10254;961.6119;;;;
2020/06/01 11:26:30;;;;;;;4.3;1;;;;;;;20.96;40.99023;961.5776;;;;
2020/06/01 11:28:55;;;;;;;5.3;1.2;;;;;;;21.02;40.97266;961.6024;;;;
2020/06/01 11:31:20;;;;;;;4.3;1;;;;;;;21.14;41.10156;961.6257;;;;
2020/06/01 11:33:46;;;;;;;3.9;1.2;;;;;;;21.26;39.76758;961.6046;;;;
2020/06/01 11:36:11;;;;;;;3.2;0.9;;;;;;;21.21;39.37402;961.5608;;;;
2020/06/01 11:38:36;;;;;;;4.5;1.1;;;;;;;21.28;39.03906;961.5931;;;;
2020/06/01 11:41:01;;;;;;;4.4;1.1;;;;;;;21.44;38.92285;961.5555;;;;
2020/06/01 11:43:26;;;;;;;3.6;1;;;;;;;21.49;39.12891;961.5112;;;;
2020/06/01 11:45:57;;;;;;;3.3;1.2;;;;;;;21.62;39.3877;961.4811;;;;
2020/06/01 11:48:22;;;;;;;4.8;1.2;;;;;;;21.64;38.08984;961.5997;;;;
2020/06/01 11:50:49;;;;;;;4.7;1.4;;;;;;;21.53;38.90723;961.5313;;;;
2020/06/01 11:53:14;;;;;;;4.1;0.9;;;;;;;21.71;39.56055;961.5399;;;;
2020/06/01 11:55:39;;;;;;;4;1.1;;;;;;;21.93;39.68652;961.5161;;;;
2020/06/01 11:58:08;;;;;;;3.7;1.2;;;;;;;21.83;39.33496;961.4459;;;;
2020/06/01 12:00:34;;;;;;;3.1;1;;;;;;;21.8;38.15137;961.5016;;;;
2020/06/01 12:03:03;;;;;;;3.6;0.8;;;;;;;21.66;38.22168;961.3936;;;;
2020/06/01 12:05:28;;;;;;;2.3;1;;;;;;;21.98;39.00586;961.3372;;;;
2020/06/01 12:07:55;;;;;;;4.6;1.2;;;;;;;22.44;39.23535;961.3159;;;;
2020/06/01 12:10:27;;;;;;;3.2;1;;;;;;;22.34;36.95605;961.4152;;;;
2020/06/01 12:12:53;;;;;;;2.9;1.1;;;;;;;22.09;37.52734;961.3761;;;;
2020/06/01 12:15:30;;;;;;;3.4;1.1;;;;;;;22.19;37.66602;961.3383;;;;
2020/06/01 12:17:56;;;;;;;3.7;1.2;;;;;;;22.36;38.06934;961.4069;;;;
2020/06/01 12:20:24;;;;;;;4.1;1.2;;;;;;;22.42;38.29883;961.3778;;;;
2020/06/01 12:22:49;;;;;;;4.6;1;;;;;;;22.38;37.00781;961.3805;;;;
2020/06/01 12:26:52;;;;;;;6;1;;;;;;;22.6;37.56934;961.301;;;;
2020/06/01 12:29:17;;;;;;;2.8;0.9;;;;;;;22.71;36.91602;961.2899;;;;
2020/06/01 12:31:42;;;;;;;3.4;1.1;;;;;;;22.7;36.65527;961.26;;;;
2020/06/01 12:34:07;;;;;;;4.9;1.1;;;;;;;22.56;37.9209;961.1852;;;;
2020/06/01 12:36:32;;;;;;;4.4;0.9;;;;;;;22.64;37.78516;961.187;;;;
2020/06/01 12:38:59;;;;;;;4.6;1.2;;;;;;;23.03;37.03809;961.2208;;;;
2020/06/01 12:41:24;;;;;;;4.1;1.1;;;;;;;22.94;36.66309;961.2307;;;;
2020/06/01 12:43:50;;;;;;;2.8;1.1;;;;;;;22.94;35.97656;961.2106;;;;
2020/06/01 12:46:15;;;;;;;2.9;0.9;;;;;;;22.91;36.25879;961.272;;;;
2020/06/01 12:48:41;;;;;;;3.9;1.1;;;;;;;22.96;36.7959;961.2519;;;;
2020/06/01 12:51:17;;;;;;;5.2;1;;;;;;;22.87;36.03027;961.1827;;;;
2020/06/01 12:53:32;;;;;;;4.7;1;;;;;;;23.21;36.52051;961.1487;;;;
2020/06/01 12:55:55;;;;;;;4.5;1.1;;;;;;;23.42;35.89648;961.1476;;;;
2020/06/01 13:00:40;;;;;;;3;1.1;;;;;;;23.41;36.64258;961.1079;;;;
2020/06/01 13:03:05;;;;;;;4.5;1.2;;;;;;;23.39;36.47461;961.1487;;;;
2020/06/01 13:05:30;;;;;;;4;1.3;;;;;;;23.53;35.73926;961.1313;;;;
2020/06/01 13:07:56;;;;;;;2.1;1;;;;;;;23.44;36.34863;961.1172;;;;
2020/06/01 13:10:25;;;;;;;3.2;1;;;;;;;23.48;35.67676;961.1036;;;;
2020/06/01 13:12:50;;;;;;;3.4;1;;;;;;;23.24;37.14941;961.0988;;;;
2020/06/01 13:15:20;;;;;;;3.5;0.9;;;;;;;23.35;35.61914;961.2121;;;;
2020/06/01 13:17:52;;;;;;;2.6;0.9;;;;;;;23.39;35.3125;961.1428;;;;
2020/06/01 13:20:18;;;;;;;2.2;0.9;;;;;;;23.05;36.36426;961.0623;;;;
2020/06/01 13:22:42;;;;;;;4.3;1;;;;;;;23.24;36.33301;961.0587;;;;
2020/06/01 13:25:11;;;;;;;4.1;1;;;;;;;23.18;36.60059;960.9807;;;;
2020/06/01 13:27:37;;;;;;;2.5;0.8;;;;;;;23.13;35.86133;961.003;;;;
2020/06/01 13:30:02;;;;;;;3.2;1.1;;;;;;;23.16;35.74512;960.9623;;;;
2020/06/01 13:32:27;;;;;;;5.2;1;;;;;;;23.2;35.40527;960.9302;;;;
2020/06/01 13:34:52;;;;;;;3.5;1.3;;;;;;;23.44;36.45508;960.9068;;;;
2020/06/01 13:37:17;;;;;;;3.2;0.9;;;;;;;23.68;36.03613;960.9503;;;;
2020/06/01 13:39:42;;;;;;;2.4;0.8;;;;;;;23.58;34.46387;960.9373;;;;
2020/06/01 13:42:07;;;;;;;3.3;0.9;;;;;;;23.46;35.12988;960.9161;;;;
2020/06/01 13:44:35;;;;;;;5;1.1;;;;;;;23.18;34.9541;960.9007;;;;
2020/06/01 13:46:58;;;;;;;2.2;0.8;;;;;;;23.36;35.58301;960.8491;;;;
2020/06/01 13:49:24;;;;;;;6.6;0.9;;;;;;;23.41;35.21973;960.8078;;;;
2020/06/01 13:51:49;;;;;;;4.2;1;;;;;;;23.51;34.38672;960.7572;;;;
2020/06/01 13:54:14;;;;;;;2.9;1;;;;;;;23.69;34.82813;960.7917;;;;
2020/06/01 13:56:41;;;;;;;3.3;1.1;;;;;;;23.65;34.61133;960.7781;;;;
2020/06/01 13:59:06;;;;;;;4.4;0.8;;;;;;;23.84;35.27832;960.6509;;;;
2020/06/01 14:01:31;;;;;;;3.4;1;;;;;;;23.72;34.2373;960.7971;;;;
2020/06/01 14:03:56;;;;;;;5.2;1;;;;;;;23.77;35.31934;960.7698;;;;
2020/06/01 14:06:22;;;;;;;2.3;0.8;;;;;;;23.77;34.57227;960.6933;;;;
2020/06/01 14:08:48;;;;;;;1.8;0.7;;;;;;;23.76;34.69141;960.6642;;;;
2020/06/01 14:11:13;;;;;;;3.3;0.9;;;;;;;23.85;35.05371;960.6458;;;;
2020/06/01 14:13:39;;;;;;;4.5;1;;;;;;;23.72;34.64063;960.5316;;;;
2020/06/01 14:16:04;;;;;;;3.6;1;;;;;;;23.78;34.71582;960.5781;;;;
2020/06/01 14:18:29;;;;;;;1.6;0.8;;;;;;;23.68;34.50586;960.6406;;;;
2020/06/01 14:20:59;;;;;;;5.8;0.8;;;;;;;23.62;34.1582;960.5184;;;;
2020/06/01 14:25:49;;;;;;;2.7;1;;;;;;;23.89;34.27441;960.5709;;;;
2020/06/01 14:28:14;;;;;;;2.7;0.9;;;;;;;23.97;33.50879;960.5603;;;;
2020/06/01 14:30:58;;;;;;;2.9;0.9;;;;;;;23.77;34.32324;960.6;;;;
2020/06/01 14:33:14;;;;;;;4.5;0.9;;;;;;;23.53;34.75586;960.6046;;;;
2020/06/01 14:38:11;;;;;;;3.2;0.8;;;;;;;24;34.3418;960.6046;;;;
2020/06/01 14:40:33;;;;;;;2.9;1.1;;;;;;;23.76;34.40527;960.5413;;;;
2020/06/01 14:42:54;;;;;;;3.5;1;;;;;;;23.98;34.43457;960.579;;;;
2020/06/01 14:45:29;;;;;;;3.2;1.3;;;;;;;23.94;35.04883;960.5746;;;;
2020/06/01 14:47:46;;;;;;;2.4;0.9;;;;;;;24.23;33.77734;960.5568;;;;
2020/06/01 14:52:45;;;;;;;1.6;0.9;;;;;;;24.45;32.6416;960.6406;;;;
2020/06/01 14:57:23;;;;;;;2.3;0.9;;;;;;;24.32;32.69141;960.5564;;;;
2020/06/01 14:59:48;;;;;;;5.5;1;;;;;;;24.4;32.74512;960.5694;;;;
2020/06/01 15:02:36;;;;;;;4.8;1;;;;;;;24.63;32.37012;960.6169;;;;
2020/06/01 15:07:07;;;;;;;1.6;0.8;;;;;;;24.42;33.20996;960.5499;;;;
2020/06/01 15:09:30;;;;;;;2;1.1;;;;;;;24.48;33.20215;960.5811;;;;
2020/06/01 15:16:45;;;;;;;2.3;0.8;;;;;;;23.95;34.38574;960.4885;;;;
2020/06/01 15:22:13;;;;;;;2.7;0.7;;;;;;;24.26;33.75586;960.4448;;;;
2020/06/01 15:26:34;;;;;;;2.1;0.8;;;;;;;23.78;34.51465;960.2767;;;;
2020/06/01 15:33:46;;;;;;;3.6;1.2;;;;;;;23.68;35.00391;960.2478;;;;
2020/06/01 15:36:13;;;;;;;2.4;0.9;;;;;;;23.65;34.23047;960.2181;;;;
2020/06/01 15:57:57;;;;;;;3.4;1;;;;;;;22.78;36.10547;960.092;;;;
2020/06/01 16:00:33;;;;;;;3.4;0.9;;;;;;;22.62;35.76172;960.0842;;;;
2020/06/01 16:10:06;;;;;;;2.5;1;;;;;;;22.67;35.74219;960.0884;;;;
2020/06/01 16:13:42;;;;;;;2.9;1.1;;;;;;;22.63;36.03418;959.9941;;;;
2020/06/01 16:24:43;;;;;;;4.2;0.9;;;;;;;22.37;37.25391;960.0933;;;;
2020/06/01 16:26:59;;;;;;;3.6;1.1;;;;;;;22.37;37.14746;960.0392;;;;
2020/06/01 16:29:30;;;;;;;4.3;1.3;;;;;;;22.4;36.90234;960.0692;;;;
2020/06/01 16:38:11;;;;;;;2.2;0.9;;;;;;;22.37;36.02441;960.1075;;;;
2020/06/01 16:39:15;;;;;;;3.8;1.2;;;;;;;22.24;35.48242;960.0619;;;;
2020/06/01 16:44:07;;;;;;;3.2;0.9;;;;;;;22.15;36.3623;960.0374;;;;
2020/06/01 16:46:29;;;;;;;1.4;0.8;;;;;;;22.15;36.01953;959.9924;;;;
2020/06/01 16:53:46;;;;;;;3.6;1;;;;;;;22.14;36.85742;960.0334;;;;
2020/06/01 16:56:03;;;;;;;2.2;0.9;;;;;;;22.17;36.0918;960.062;;;;
2020/06/01 17:05:41;;;;;;;3.3;1.1;;;;;;;22.15;35.66504;960.122;;;;